ENBL/FDE METAR and TAF weather

Enter ICAO airport designator
Station Type Date Time Source
ENBL METAR 2020/04/06 07:50 UTC NOAA

ENBL 060750Z 16010KT CAVOK 10/M04 Q1011


Station Type Date Time Source
ENBL Decoded METAR 2020/04/06 07:50 UTC NOAA

Forde / Bringeland, Norway (ENBL) 61-27N 005-52E
Apr 06, 2020 - 03:50 AM EDT / 2020.04.06 0750 UTC
Wind: from the SSE (160 degrees) at 12 MPH (10 KT):0
Visibility: greater than 7 mile(s):0
Temperature: 50 F (10 C)
Dew Point: 24 F (-4 C)
Relative Humidity: 37%
Pressure (altimeter): 29.85 in. Hg (1011 hPa)
ob: ENBL 060750Z 16010KT CAVOK 10/M04 Q1011
cycle: 8

Station Type Date Time Source
ENBL TAF UTC NOAA

Error!

Example: see airport list